Time;durP1;ratioP1;P1;durP2;ratioP2;P2;SDS_P1;SDS_P2;PMS_P1;PMS_P2;Temp;Humidity;BMP_temperature;BMP_pressure;BME280_temperature;BME280_humidity;BME280_pressure;Samples;Min_cycle;Max_cycle;Signal;HPM_P1;HPM_P2
2024/04/16 00:02:16;;;;;;;9.05;2.20;;;6.80;99.90;;;;;;5414739;26;19995;-46
2024/04/16 00:04:41;;;;;;;5.55;2.35;;;6.80;99.90;;;;;;5383240;26;20035;-42
2024/04/16 00:07:07;;;;;;;7.57;1.92;;;6.80;99.90;;;;;;5414625;26;20007;-43
2024/04/16 00:09:32;;;;;;;7.28;1.92;;;6.90;99.90;;;;;;5414085;26;20000;-44
2024/04/16 00:12:00;;;;;;;4.43;2.25;;;6.90;99.90;;;;;;5415116;26;20012;-45
2024/04/16 00:14:25;;;;;;;6.35;1.92;;;6.90;99.90;;;;;;5414531;26;19999;-44
2024/04/16 00:16:51;;;;;;;4.20;1.80;;;6.90;99.90;;;;;;5414181;26;20010;-42
2024/04/16 00:19:16;;;;;;;2.90;2.08;;;6.90;99.90;;;;;;5414486;26;20031;-41
2024/04/16 00:21:42;;;;;;;4.13;1.60;;;6.90;99.90;;;;;;5414295;26;20417;-42
2024/04/16 00:24:07;;;;;;;10.38;3.80;;;6.80;99.90;;;;;;5414232;26;19995;-42
2024/04/16 00:26:33;;;;;;;4.90;2.00;;;6.80;99.90;;;;;;5414013;26;19996;-49
2024/04/16 00:28:59;;;;;;;3.13;2.28;;;6.90;99.90;;;;;;5383006;26;20455;-43
2024/04/16 00:31:24;;;;;;;4.30;2.75;;;6.90;99.90;;;;;;5414109;26;20011;-45
2024/04/16 00:33:50;;;;;;;5.72;2.58;;;7.00;99.90;;;;;;5414071;26;20418;-41
2024/04/16 00:36:15;;;;;;;5.97;1.75;;;7.10;99.90;;;;;;5414531;26;20000;-48
2024/04/16 00:38:41;;;;;;;3.42;1.80;;;7.20;99.90;;;;;;5413974;26;20044;-41
2024/04/16 00:41:06;;;;;;;8.48;3.55;;;7.20;99.90;;;;;;5413872;26;20009;-43
2024/04/16 00:43:32;;;;;;;4.40;2.05;;;7.30;99.90;;;;;;5413786;26;20011;-46
2024/04/16 00:45:59;;;;;;;9.00;2.40;;;7.30;99.90;;;;;;5414035;26;20000;-42
2024/04/16 00:48:27;;;;;;;5.57;2.38;;;7.30;99.90;;;;;;5413735;26;20008;-43
2024/04/16 00:50:55;;;;;;;6.78;2.00;;;7.20;99.90;;;;;;5413485;26;20005;-43
2024/04/16 00:53:22;;;;;;;7.95;1.88;;;7.20;99.90;;;;;;5413686;26;20334;-42
2024/04/16 00:55:47;;;;;;;8.93;1.58;;;7.20;99.90;;;;;;5413867;26;20000;-42
2024/04/16 00:58:17;;;;;;;5.55;1.95;;;7.30;99.90;;;;;;5413602;26;20359;-44
2024/04/16 01:00:43;;;;;;;3.97;1.58;;;7.20;99.90;;;;;;5413291;26;20010;-44
2024/04/16 01:03:09;;;;;;;14.98;2.58;;;7.20;99.90;;;;;;5413806;26;20006;-46
2024/04/16 01:05:34;;;;;;;2.38;1.40;;;7.20;99.90;;;;;;5417203;26;20000;-47
2024/04/16 01:08:01;;;;;;;8.45;2.30;;;7.20;99.90;;;;;;5417108;26;20152;-42
2024/04/16 01:10:26;;;;;;;5.90;1.30;;;7.20;99.90;;;;;;5416915;26;20443;-45
2024/04/16 01:12:52;;;;;;;3.55;1.17;;;7.10;99.90;;;;;;5385998;26;20014;-42
2024/04/16 01:15:17;;;;;;;7.68;1.63;;;7.20;99.90;;;;;;5385846;26;20011;-41
2024/04/16 01:17:43;;;;;;;5.40;1.67;;;7.20;99.90;;;;;;5417067;26;20014;-43
2024/04/16 01:20:09;;;;;;;2.85;1.10;;;7.20;99.90;;;;;;5416816;26;20474;-45
2024/04/16 01:22:35;;;;;;;4.85;1.35;;;7.20;99.90;;;;;;5417439;26;20335;-43
2024/04/16 01:25:00;;;;;;;3.03;1.45;;;7.20;99.90;;;;;;5385914;26;19999;-42
2024/04/16 01:27:26;;;;;;;2.78;1.50;;;7.20;99.90;;;;;;5416668;26;20003;-42
2024/04/16 01:29:51;;;;;;;7.93;1.30;;;7.10;99.90;;;;;;5416769;26;20006;-44
2024/04/16 01:32:17;;;;;;;2.17;1.05;;;7.20;99.90;;;;;;5417134;26;20011;-39
2024/04/16 01:34:42;;;;;;;4.53;1.05;;;7.20;99.90;;;;;;5416969;26;20043;-42
2024/04/16 01:37:08;;;;;;;1.85;0.82;;;7.10;99.90;;;;;;5385496;26;20031;-42
2024/04/16 01:39:34;;;;;;;4.60;1.00;;;7.10;99.90;;;;;;5385126;26;20020;-47
2024/04/16 01:41:59;;;;;;;2.97;0.90;;;7.10;99.90;;;;;;5416401;26;19996;-44
2024/04/16 01:44:25;;;;;;;1.83;1.00;;;7.00;99.90;;;;;;5416756;26;20000;-42
2024/04/16 01:46:51;;;;;;;1.30;0.88;;;7.00;99.90;;;;;;5416708;26;20007;-42
2024/04/16 01:49:17;;;;;;;1.80;0.55;;;6.90;99.90;;;;;;5416511;26;20007;-42
2024/04/16 01:51:42;;;;;;;0.70;0.50;;;6.90;99.90;;;;;;5416409;26;19996;-42
2024/04/16 01:54:08;;;;;;;2.75;0.50;;;6.80;99.90;;;;;;5416646;26;20011;-44
2024/04/16 01:56:33;;;;;;;0.40;0.40;;;6.70;99.90;;;;;;5416991;26;20069;-42
2024/04/16 01:58:59;;;;;;;2.03;0.60;;;6.60;99.90;;;;;;5416422;26;20008;-46
2024/04/16 02:01:24;;;;;;;3.25;1.00;;;6.60;99.90;;;;;;5415886;26;20006;-43
2024/04/16 02:03:50;;;;;;;1.30;0.45;;;6.60;99.90;;;;;;5416220;26;20020;-42
2024/04/16 02:06:16;;;;;;;2.92;0.65;;;6.60;99.90;;;;;;5416187;26;19996;-42
2024/04/16 02:08:41;;;;;;;2.30;0.77;;;6.70;99.90;;;;;;5416397;26;20000;-42
2024/04/16 02:11:06;;;;;;;8.13;0.98;;;6.70;99.90;;;;;;5384770;26;19995;-45
2024/04/16 02:13:32;;;;;;;0.80;0.80;;;6.80;99.90;;;;;;5416570;26;20127;-43
2024/04/16 02:15:57;;;;;;;2.28;1.10;;;6.80;99.90;;;;;;5416292;26;20113;-42
2024/04/16 02:18:23;;;;;;;1.08;0.60;;;6.70;99.90;;;;;;5384892;26;20006;-44
2024/04/16 02:20:48;;;;;;;3.70;0.80;;;6.70;99.90;;;;;;5415985;26;20010;-42
2024/04/16 02:23:14;;;;;;;1.00;0.73;;;6.70;99.90;;;;;;5416493;26;19995;-44
2024/04/16 02:25:47;;;;;;;1.23;0.80;;;6.70;99.90;;;;;;5415948;26;20010;-43
2024/04/16 02:28:12;;;;;;;3.78;0.80;;;6.70;99.90;;;;;;5384869;26;19999;-42
2024/04/16 02:30:38;;;;;;;3.15;0.60;;;6.60;99.90;;;;;;5415671;26;19999;-43
2024/04/16 02:33:03;;;;;;;3.28;1.17;;;6.60;99.90;;;;;;5416014;26;20072;-48
2024/04/16 02:35:32;;;;;;;1.00;0.73;;;6.50;99.90;;;;;;5416302;26;20367;-45
2024/04/16 02:37:57;;;;;;;3.58;0.77;;;6.50;99.90;;;;;;5415920;26;19996;-45
2024/04/16 02:40:24;;;;;;;2.58;0.85;;;6.40;99.90;;;;;;5355467;26;20068;-44
2024/04/16 02:42:49;;;;;;;1.98;0.70;;;6.40;99.90;;;;;;5416557;26;20007;-43
2024/04/16 02:45:15;;;;;;;4.65;2.03;;;6.40;99.90;;;;;;5416724;26;19999;-43
2024/04/16 02:47:40;;;;;;;1.00;0.98;;;6.40;99.90;;;;;;5416384;26;20007;-42
2024/04/16 02:50:07;;;;;;;1.13;0.55;;;6.30;99.90;;;;;;5415983;26;19995;-45
2024/04/16 02:52:32;;;;;;;2.35;0.63;;;6.30;99.90;;;;;;5384479;26;19999;-44
2024/04/16 02:54:58;;;;;;;4.25;0.82;;;6.30;99.90;;;;;;5416165;26;20346;-43
2024/04/16 02:57:23;;;;;;;1.38;0.80;;;6.30;99.90;;;;;;5415767;26;20006;-46
2024/04/16 02:59:49;;;;;;;0.73;0.60;;;6.30;99.90;;;;;;5384050;26;20007;-42
2024/04/16 03:02:15;;;;;;;0.60;0.60;;;6.30;99.90;;;;;;5415875;26;20006;-49
2024/04/16 03:04:40;;;;;;;3.00;0.60;;;6.30;99.90;;;;;;5415647;26;20331;-48
2024/04/16 03:07:06;;;;;;;1.40;0.60;;;6.10;99.90;;;;;;5415641;26;19999;-46
2024/04/16 03:09:31;;;;;;;3.40;0.80;;;6.00;99.90;;;;;;5415388;26;20006;-42
2024/04/16 03:11:57;;;;;;;3.90;1.50;;;5.80;99.90;;;;;;5384324;26;20408;-45
2024/04/16 03:14:22;;;;;;;2.60;0.95;;;5.80;99.90;;;;;;5415410;26;20031;-43
2024/04/16 03:16:48;;;;;;;1.30;0.50;;;5.80;99.90;;;;;;5415494;26;19996;-44
2024/04/16 03:19:14;;;;;;;3.22;0.73;;;5.80;99.90;;;;;;5415446;26;19996;-42
2024/04/16 03:21:39;;;;;;;3.80;1.33;;;5.80;99.90;;;;;;5414950;26;19995;-42
2024/04/16 03:24:05;;;;;;;2.95;0.85;;;5.80;99.90;;;;;;5415559;26;19996;-42
2024/04/16 03:26:30;;;;;;;3.05;1.33;;;5.80;99.90;;;;;;5414466;26;19999;-42
2024/04/16 03:28:56;;;;;;;2.05;0.93;;;5.70;99.90;;;;;;5384649;26;20359;-42
2024/04/16 03:31:21;;;;;;;3.22;0.90;;;5.60;99.90;;;;;;5415765;26;20136;-46
2024/04/16 03:33:47;;;;;;;4.20;1.52;;;5.50;99.90;;;;;;5415666;26;20347;-40
2024/04/16 03:36:12;;;;;;;3.55;1.45;;;5.40;99.90;;;;;;5415420;26;20010;-42
2024/04/16 03:38:38;;;;;;;3.65;0.68;;;5.40;99.90;;;;;;5415232;26;19999;-44
2024/04/16 03:41:03;;;;;;;3.75;0.95;;;5.30;99.90;;;;;;5414892;26;20362;-43
2024/04/16 03:43:31;;;;;;;6.72;1.08;;;5.20;99.90;;;;;;5415179;26;20028;-44
2024/04/16 03:45:57;;;;;;;5.07;0.90;;;5.20;99.90;;;;;;5415209;26;20417;-44
2024/04/16 03:48:24;;;;;;;5.55;1.02;;;5.30;99.90;;;;;;5414617;26;19995;-44
2024/04/16 03:50:50;;;;;;;4.13;1.00;;;5.30;99.90;;;;;;5414669;26;19996;-45
2024/04/16 03:53:16;;;;;;;1.48;0.80;;;5.30;99.90;;;;;;5415016;26;20363;-41
2024/04/16 03:55:41;;;;;;;2.45;1.45;;;5.20;99.90;;;;;;5415012;26;19995;-41
2024/04/16 03:58:07;;;;;;;1.77;1.20;;;5.20;99.90;;;;;;5414763;26;20446;-41
2024/04/16 04:03:19;;;;;;;0.67;0.67;;;5.00;99.90;;;;;;5415261;26;20006;-42
2024/04/16 04:05:44;;;;;;;4.30;1.50;;;5.00;99.90;;;;;;5414996;26;20003;-42
2024/04/16 04:08:10;;;;;;;3.60;1.02;;;5.10;99.90;;;;;;5414568;26;20004;-44
2024/04/16 04:10:36;;;;;;;2.00;0.80;;;5.10;99.90;;;;;;5383111;26;20011;-44
2024/04/16 04:13:01;;;;;;;1.10;0.77;;;5.20;99.90;;;;;;5414678;26;20015;-47
2024/04/16 04:15:27;;;;;;;2.75;0.95;;;5.20;99.90;;;;;;5414334;26;20007;-43
2024/04/16 04:17:52;;;;;;;1.40;0.90;;;5.10;99.90;;;;;;5414267;26;20045;-43
2024/04/16 04:20:18;;;;;;;4.82;0.90;;;5.20;99.90;;;;;;5353907;26;20473;-42
2024/04/16 04:22:43;;;;;;;1.63;1.00;;;5.10;99.90;;;;;;5414444;26;20007;-47
2024/04/16 04:25:09;;;;;;;1.15;1.05;;;5.10;99.90;;;;;;5414270;26;20078;-41
2024/04/16 04:27:34;;;;;;;3.65;1.48;;;5.10;99.90;;;;;;5413780;26;20039;-41
2024/04/16 04:30:00;;;;;;;2.45;1.27;;;5.10;99.90;;;;;;5413989;26;19999;-43
2024/04/16 04:32:25;;;;;;;4.90;1.25;;;5.20;99.90;;;;;;5414129;26;20519;-44
2024/04/16 04:34:51;;;;;;;5.90;1.00;;;5.30;99.90;;;;;;5414300;26;19999;-48
2024/04/16 04:37:17;;;;;;;4.55;1.25;;;5.60;99.90;;;;;;5414167;26;20004;-42
2024/04/16 04:39:43;;;;;;;6.65;1.48;;;5.40;99.90;;;;;;5416894;26;19996;-45
2024/04/16 04:42:08;;;;;;;11.30;1.92;;;5.50;99.90;;;;;;5417671;26;20011;-44
2024/04/16 04:44:34;;;;;;;5.22;1.30;;;5.50;99.90;;;;;;5418307;26;19996;-43
2024/04/16 04:46:59;;;;;;;4.20;1.30;;;5.60;99.90;;;;;;5418337;26;20352;-43
2024/04/16 04:49:25;;;;;;;6.50;1.30;;;5.60;99.90;;;;;;5418003;26;20000;-42
2024/04/16 04:51:50;;;;;;;4.05;1.38;;;5.60;99.90;;;;;;5387146;26;20031;-43
2024/04/16 04:54:16;;;;;;;9.10;1.55;;;5.70;99.90;;;;;;5418495;26;20003;-44
2024/04/16 04:56:42;;;;;;;7.50;1.80;;;5.80;99.90;;;;;;5417880;26;20011;-44
2024/04/16 04:59:07;;;;;;;3.08;1.45;;;5.80;99.90;;;;;;5417356;26;19999;-44
2024/04/16 05:01:32;;;;;;;8.88;2.35;;;5.80;99.90;;;;;;5416922;26;20010;-45
2024/04/16 05:03:58;;;;;;;5.28;2.20;;;5.90;99.90;;;;;;5386048;26;20072;-43
2024/04/16 05:06:24;;;;;;;3.83;1.85;;;5.90;99.90;;;;;;5417351;26;20445;-45
2024/04/16 05:08:49;;;;;;;7.30;2.38;;;5.90;99.90;;;;;;5417060;26;20000;-44
2024/04/16 05:11:14;;;;;;;2.35;1.38;;;5.90;99.90;;;;;;5416760;26;20092;-43
2024/04/16 05:13:40;;;;;;;6.32;1.48;;;6.00;99.90;;;;;;5417087;26;20141;-44
2024/04/16 05:16:06;;;;;;;6.05;1.80;;;6.30;99.90;;;;;;5417187;26;19999;-46
2024/04/16 05:18:31;;;;;;;7.57;2.58;;;6.60;99.90;;;;;;5417529;26;20069;-48
2024/04/16 05:20:58;;;;;;;7.03;1.60;;;6.80;99.90;;;;;;5417276;26;19995;-43
2024/04/16 05:23:24;;;;;;;16.38;2.10;;;6.80;99.90;;;;;;5417199;26;20069;-47
2024/04/16 05:26:02;;;;;;;2.78;1.90;;;6.80;99.90;;;;;;5416743;26;19996;-47
2024/04/16 05:28:28;;;;;;;2.40;1.23;;;6.90;99.90;;;;;;5416951;26;20003;-43
2024/04/16 05:30:53;;;;;;;3.42;1.42;;;7.10;99.90;;;;;;5416644;26;19999;-40
2024/04/16 05:33:19;;;;;;;8.75;2.85;;;7.40;99.90;;;;;;5417368;26;19996;-43
2024/04/16 05:35:44;;;;;;;3.13;1.55;;;7.60;99.90;;;;;;5417278;26;20014;-46
2024/04/16 05:38:10;;;;;;;6.93;1.70;;;7.80;99.90;;;;;;5417450;26;20477;-44
2024/04/16 05:40:35;;;;;;;8.07;1.80;;;7.90;99.90;;;;;;5416916;26;20347;-45
2024/04/16 05:43:01;;;;;;;8.82;2.60;;;8.00;99.90;;;;;;5416936;26;20049;-43
2024/04/16 05:45:26;;;;;;;7.15;1.63;;;7.90;99.90;;;;;;5416512;26;20006;-41
2024/04/16 05:47:52;;;;;;;9.95;2.10;;;7.90;99.90;;;;;;5442497;21;20371;-49
2024/04/16 05:50:17;;;;;;;7.95;1.75;;;7.70;99.90;;;;;;5453361;26;20096;-50
2024/04/16 05:52:43;;;;;;;13.98;2.92;;;7.60;99.90;;;;;;5489085;26;20071;-50
2024/04/16 05:55:08;;;;;;;9.40;1.85;;;7.50;99.90;;;;;;5456648;26;20018;-48
2024/04/16 05:57:34;;;;;;;8.05;2.13;;;7.40;99.90;;;;;;5456633;26;19998;-51
2024/04/16 06:00:00;;;;;;;11.15;1.73;;;7.30;99.90;;;;;;5453864;26;20003;-54
2024/04/16 06:02:26;;;;;;;5.55;2.22;;;7.20;99.90;;;;;;5420647;26;20047;-49
2024/04/16 06:04:51;;;;;;;9.13;2.53;;;7.20;99.90;;;;;;5452180;26;20398;-51
2024/04/16 06:07:17;;;;;;;9.85;1.88;;;7.20;99.90;;;;;;5452331;26;20407;-49
2024/04/16 06:09:42;;;;;;;10.88;2.30;;;7.20;99.90;;;;;;5451950;26;19995;-50
2024/04/16 06:12:08;;;;;;;6.75;1.58;;;7.10;99.90;;;;;;5452259;26;20002;-50
2024/04/16 06:14:34;;;;;;;9.98;2.53;;;7.10;99.90;;;;;;5451986;26;19995;-50
2024/04/16 06:16:59;;;;;;;10.25;2.35;;;7.10;99.90;;;;;;5420784;26;20005;-49
2024/04/16 06:19:25;;;;;;;5.95;1.90;;;7.10;99.90;;;;;;5452215;26;20489;-49
2024/04/16 06:21:50;;;;;;;8.88;1.85;;;7.10;99.90;;;;;;5452401;26;19998;-50
2024/04/16 06:24:16;;;;;;;9.70;2.03;;;7.10;99.90;;;;;;5452318;26;20009;-54
2024/04/16 06:26:41;;;;;;;7.18;2.10;;;7.20;99.90;;;;;;5451636;26;20349;-53
2024/04/16 06:29:07;;;;;;;9.13;1.58;;;7.30;99.90;;;;;;5420198;26;20011;-50
2024/04/16 06:31:32;;;;;;;11.27;2.80;;;7.40;99.90;;;;;;5451900;26;20068;-52
2024/04/16 06:33:58;;;;;;;12.18;1.80;;;7.50;99.90;;;;;;5451872;26;19999;-48
2024/04/16 06:36:23;;;;;;;7.65;2.03;;;7.50;99.90;;;;;;5452145;26;20013;-49
2024/04/16 06:38:49;;;;;;;14.68;2.10;;;7.50;99.90;;;;;;5451854;26;20466;-52
2024/04/16 06:41:14;;;;;;;6.32;2.75;;;7.50;99.90;;;;;;5451692;26;20075;-54
2024/04/16 06:43:40;;;;;;;8.77;2.25;;;7.60;99.90;;;;;;5451884;26;19994;-54
2024/04/16 06:46:05;;;;;;;3.83;2.10;;;7.60;99.90;;;;;;5451851;26;19998;-51
2024/04/16 06:48:32;;;;;;;6.93;2.35;;;7.60;99.90;;;;;;5451667;26;20010;-51
2024/04/16 06:50:58;;;;;;;7.75;3.30;;;7.60;99.90;;;;;;5451443;26;19999;-50
2024/04/16 06:53:23;;;;;;;6.13;2.97;;;7.50;99.90;;;;;;5451736;26;20418;-50
2024/04/16 06:56:02;;;;;;;4.93;2.45;;;7.50;99.90;;;;;;5451706;26;19998;-53
2024/04/16 06:58:28;;;;;;;10.68;3.22;;;7.60;99.90;;;;;;5451479;26;20010;-52
2024/04/16 07:00:54;;;;;;;10.90;3.72;;;7.60;99.90;;;;;;5450156;26;19995;-52
2024/04/16 07:03:21;;;;;;;6.40;2.20;;;8.90;99.90;;;;;;5451525;26;19995;-53
2024/04/16 07:05:46;;;;;;;8.68;2.60;;;8.60;99.90;;;;;;5419787;26;20006;-53
2024/04/16 07:08:12;;;;;;;3.30;1.92;;;9.20;99.90;;;;;;5451293;26;19995;-51
2024/04/16 07:10:37;;;;;;;5.65;2.10;;;9.10;99.90;;;;;;5451297;26;19998;-55
2024/04/16 07:13:03;;;;;;;4.82;2.63;;;9.00;99.90;;;;;;5420214;26;19991;-51
2024/04/16 07:15:29;;;;;;;5.90;2.00;;;8.90;99.90;;;;;;5451352;26;19999;-54
2024/04/16 07:17:56;;;;;;;4.50;1.88;;;9.00;99.90;;;;;;5451510;26;20006;-53
2024/04/16 07:20:22;;;;;;;8.00;2.42;;;9.10;99.90;;;;;;5449684;26;20066;-52
2024/04/16 07:22:48;;;;;;;7.90;2.72;;;9.10;99.90;;;;;;5451144;26;20006;-53
2024/04/16 07:25:13;;;;;;;3.13;1.65;;;9.10;99.90;;;;;;5451215;26;19999;-53
2024/04/16 07:27:39;;;;;;;6.95;2.08;;;9.00;99.90;;;;;;5450769;26;20014;-52
2024/04/16 07:30:05;;;;;;;5.75;1.50;;;9.00;99.90;;;;;;5450459;26;20011;-49
2024/04/16 07:32:30;;;;;;;5.20;1.67;;;9.00;99.90;;;;;;5450569;26;20408;-49
2024/04/16 07:34:56;;;;;;;2.80;1.20;;;9.50;99.90;;;;;;5451216;26;19998;-51
2024/04/16 07:37:21;;;;;;;3.45;1.33;;;10.10;99.90;;;;;;5450486;26;20002;-51
2024/04/16 07:39:47;;;;;;;1.42;1.17;;;11.00;99.90;;;;;;5418701;26;20003;-52
2024/04/16 07:42:13;;;;;;;4.72;1.60;;;11.40;99.90;;;;;;5419026;26;20009;-55
2024/04/16 07:44:41;;;;;;;2.80;1.17;;;12.10;99.90;;;;;;5451431;26;20415;-53
2024/04/16 07:47:07;;;;;;;5.35;1.17;;;11.60;99.90;;;;;;5451145;26;19991;-54
2024/04/16 07:49:32;;;;;;;4.40;1.35;;;11.10;99.90;;;;;;5449506;26;20407;-55
2024/04/16 07:51:58;;;;;;;5.25;1.45;;;10.70;99.90;;;;;;5417929;26;20542;-49
2024/04/16 07:54:23;;;;;;;6.75;2.03;;;10.50;99.90;;;;;;5450710;26;20003;-52
2024/04/16 07:56:50;;;;;;;8.18;2.20;;;9.80;99.90;;;;;;5450434;26;20011;-56
2024/04/16 07:59:16;;;;;;;4.03;1.48;;;9.80;99.90;;;;;;5451248;26;20100;-53
2024/04/16 08:01:41;;;;;;;5.82;1.50;;;9.60;99.90;;;;;;5450150;26;20443;-53
2024/04/16 08:04:07;;;;;;;7.75;1.58;;;9.50;99.90;;;;;;5450620;26;19998;-52
2024/04/16 08:06:32;;;;;;;5.63;1.60;;;9.50;99.90;;;;;;5419239;26;20450;-52
2024/04/16 08:08:58;;;;;;;2.60;1.40;;;9.40;99.90;;;;;;5450260;26;20039;-48
2024/04/16 08:11:24;;;;;;;5.78;1.42;;;9.30;99.90;;;;;;5418492;26;20068;-56
2024/04/16 08:13:50;;;;;;;4.40;2.08;;;9.20;99.90;;;;;;5452507;26;20003;-50
2024/04/16 08:16:16;;;;;;;3.53;1.98;;;9.20;99.90;;;;;;5453967;26;20003;-50
2024/04/16 08:18:42;;;;;;;5.10;1.85;;;9.00;99.90;;;;;;5453731;26;20067;-50
2024/04/16 08:21:07;;;;;;;3.25;1.85;;;9.00;99.90;;;;;;5421867;26;20011;-50
2024/04/16 08:23:33;;;;;;;8.20;2.47;;;9.10;99.90;;;;;;5453785;26;20038;-54
2024/04/16 08:26:03;;;;;;;9.13;2.15;;;9.20;99.90;;;;;;5453986;26;20346;-50
2024/04/16 08:28:30;;;;;;;5.50;2.40;;;9.20;99.90;;;;;;5453755;26;20070;-53
2024/04/16 08:30:59;;;;;;;4.35;1.67;;;9.10;99.90;;;;;;5453321;26;20003;-54
2024/04/16 08:33:25;;;;;;;5.45;1.83;;;9.00;99.90;;;;;;5453776;26;19994;-54
2024/04/16 08:35:51;;;;;;;8.98;1.90;;;8.90;99.90;;;;;;5421818;26;19995;-54
2024/04/16 08:38:18;;;;;;;4.18;1.38;;;8.90;99.90;;;;;;5453600;26;19995;-51
2024/04/16 08:40:47;;;;;;;3.40;1.63;;;8.90;99.90;;;;;;5453185;26;20079;-52
2024/04/16 08:43:13;;;;;;;3.63;1.48;;;8.60;99.90;;;;;;5453847;26;20014;-52
2024/04/16 08:45:42;;;;;;;4.35;1.30;;;8.80;99.90;;;;;;5453594;26;19998;-51
2024/04/16 08:48:08;;;;;;;2.42;1.00;;;8.60;99.90;;;;;;5421446;26;19995;-54
2024/04/16 08:50:36;;;;;;;3.45;1.40;;;8.50;99.90;;;;;;5452861;26;20082;-49
2024/04/16 08:53:02;;;;;;;3.78;1.70;;;8.50;99.90;;;;;;5453188;26;19999;-51
2024/04/16 08:55:30;;;;;;;1.98;1.20;;;8.40;99.90;;;;;;5453377;26;20436;-52
2024/04/16 08:57:56;;;;;;;1.98;1.23;;;8.30;99.90;;;;;;5452735;26;20007;-52
2024/04/16 09:00:22;;;;;;;1.13;1.13;;;8.20;99.90;;;;;;5452689;26;20006;-53
2024/04/16 09:02:50;;;;;;;3.33;1.67;;;8.30;99.90;;;;;;5452909;26;20011;-54
2024/04/16 09:05:16;;;;;;;2.28;1.10;;;8.10;99.90;;;;;;5453132;26;20040;-50
2024/04/16 09:07:42;;;;;;;0.95;0.95;;;8.10;99.90;;;;;;5421227;26;19998;-52
2024/04/16 09:10:11;;;;;;;6.40;1.50;;;8.00;99.90;;;;;;5421156;26;20338;-52
2024/04/16 09:12:40;;;;;;;2.45;1.20;;;8.00;99.90;;;;;;5452513;26;20080;-51
2024/04/16 09:15:05;;;;;;;2.25;1.48;;;7.90;99.90;;;;;;5452915;26;20470;-49
2024/04/16 09:17:31;;;;;;;1.73;1.52;;;7.90;99.90;;;;;;5453098;26;20005;-49
2024/04/16 09:20:00;;;;;;;2.20;1.60;;;7.80;99.90;;;;;;5420304;26;20001;-52
2024/04/16 09:22:26;;;;;;;20.63;11.93;;;7.90;99.90;;;;;;5453065;26;19999;-51
2024/04/16 09:24:51;;;;;;;4.95;3.33;;;7.90;99.90;;;;;;5420302;26;20013;-51
2024/04/16 09:27:17;;;;;;;2.97;2.00;;;7.90;99.90;;;;;;5420898;26;20009;-49
2024/04/16 09:29:44;;;;;;;2.50;1.20;;;7.80;99.90;;;;;;5450686;26;19999;-55
2024/04/16 09:32:10;;;;;;;1.40;1.30;;;7.80;99.90;;;;;;5428787;26;20014;-53
2024/04/16 09:34:42;;;;;;;1.38;1.27;;;7.70;99.90;;;;;;5453035;26;19998;-54
2024/04/16 09:37:07;;;;;;;1.27;1.25;;;7.60;99.90;;;;;;5453008;26;20530;-56
2024/04/16 09:39:33;;;;;;;3.50;1.25;;;7.60;99.90;;;;;;5421636;26;20030;-54
2024/04/16 09:41:59;;;;;;;1.40;1.02;;;7.60;99.90;;;;;;5453646;26;20010;-54
2024/04/16 09:44:25;;;;;;;3.30;1.25;;;7.60;99.90;;;;;;5422303;26;20041;-55
2024/04/16 09:46:51;;;;;;;2.83;1.20;;;7.60;99.90;;;;;;5452927;26;20017;-54
2024/04/16 09:49:18;;;;;;;1.13;1.13;;;7.60;99.90;;;;;;5452999;26;19998;-55
2024/04/16 09:51:47;;;;;;;3.63;1.50;;;7.60;99.90;;;;;;5432833;26;20080;-53
2024/04/16 09:54:15;;;;;;;2.05;1.38;;;7.60;99.90;;;;;;5452519;26;20462;-53
2024/04/16 09:56:43;;;;;;;2.55;1.10;;;7.70;99.90;;;;;;5451782;26;20003;-51
2024/04/16 09:59:12;;;;;;;4.30;1.40;;;7.70;99.90;;;;;;5452333;26;20002;-49
2024/04/16 10:01:39;;;;;;;1.20;0.95;;;7.80;99.90;;;;;;5442160;26;20003;-55
2024/04/16 10:04:06;;;;;;;3.78;1.38;;;7.80;99.90;;;;;;5446409;26;20071;-54
2024/04/16 10:06:32;;;;;;;2.97;1.23;;;7.90;99.90;;;;;;5420354;26;20008;-54
2024/04/16 10:08:57;;;;;;;1.88;1.05;;;8.00;99.90;;;;;;5475451;26;20089;-53
2024/04/16 10:11:23;;;;;;;1.30;1.17;;;8.10;99.90;;;;;;5451138;26;20372;-53
2024/04/16 10:13:52;;;;;;;1.00;0.90;;;8.10;99.90;;;;;;5420724;26;20071;-56
2024/04/16 10:16:17;;;;;;;3.50;1.35;;;8.20;99.90;;;;;;5453108;26;20076;-51
2024/04/16 10:18:54;;;;;;;1.73;0.88;;;8.30;99.90;;;;;;5453021;26;20395;-51
2024/04/16 10:21:24;;;;;;;1.33;0.90;;;8.40;99.90;;;;;;5453173;26;20007;-53
2024/04/16 10:24:01;;;;;;;0.90;0.90;;;8.40;99.90;;;;;;5452175;26;20458;-52
2024/04/16 10:26:29;;;;;;;0.80;0.80;;;8.50;99.90;;;;;;5419127;26;20035;-51
2024/04/16 10:28:56;;;;;;;1.40;0.98;;;8.50;99.90;;;;;;5447915;26;20013;-56
2024/04/16 10:31:33;;;;;;;1.52;1.10;;;8.60;99.90;;;;;;5415791;26;20014;-54
2024/04/16 10:34:03;;;;;;;1.75;0.90;;;8.70;99.90;;;;;;5449789;26;20003;-53
2024/04/16 10:36:29;;;;;;;4.00;1.02;;;8.80;99.90;;;;;;5441835;26;20358;-57
2024/04/16 10:38:57;;;;;;;3.00;0.80;;;8.80;99.90;;;;;;5449442;26;19995;-52
2024/04/16 10:41:26;;;;;;;2.40;0.95;;;9.00;99.90;;;;;;5451751;26;19998;-56
2024/04/16 10:43:54;;;;;;;1.83;0.85;;;9.20;99.90;;;;;;5430786;26;20002;-54
2024/04/16 10:46:20;;;;;;;3.75;1.85;;;9.30;99.90;;;;;;5452801;26;20099;-53
2024/04/16 10:48:46;;;;;;;1.05;0.70;;;9.40;99.90;;;;;;5450988;26;20027;-52
2024/04/16 10:51:15;;;;;;;1.25;1.02;;;9.40;99.90;;;;;;5451617;26;20303;-54
2024/04/16 10:53:42;;;;;;;3.40;0.82;;;9.50;99.90;;;;;;5454025;26;20010;-55
2024/04/16 10:56:08;;;;;;;1.85;0.60;;;9.50;99.90;;;;;;5453397;26;19995;-58
2024/04/16 10:58:35;;;;;;;1.75;0.50;;;9.60;99.90;;;;;;5452634;26;20014;-54
2024/04/16 11:01:01;;;;;;;1.35;0.73;;;9.70;99.90;;;;;;5421271;26;20010;-53
2024/04/16 11:03:27;;;;;;;0.50;0.50;;;9.70;99.90;;;;;;5451506;26;20007;-52
2024/04/16 11:05:56;;;;;;;5.35;1.00;;;9.70;99.90;;;;;;5451291;26;20009;-51
2024/04/16 11:08:21;;;;;;;1.55;0.77;;;9.80;99.90;;;;;;5451202;26;20346;-52
2024/04/16 11:10:49;;;;;;;2.33;0.98;;;9.80;99.90;;;;;;5450903;26;19999;-52
2024/04/16 11:13:18;;;;;;;1.83;0.88;;;10.00;99.90;;;;;;5452002;26;19998;-54
2024/04/16 11:15:44;;;;;;;0.90;0.73;;;10.20;99.90;;;;;;5450350;26;19995;-51
2024/04/16 11:18:10;;;;;;;0.77;0.70;;;10.40;99.90;;;;;;5418629;26;20474;-55
2024/04/16 11:20:35;;;;;;;2.90;0.70;;;10.60;99.90;;;;;;5451224;26;20400;-55
2024/04/16 11:23:02;;;;;;;6.50;3.63;;;10.60;99.90;;;;;;5419350;26;20001;-57
2024/04/16 11:25:31;;;;;;;2.70;1.20;;;10.70;99.90;;;;;;5451494;26;19995;-53
2024/04/16 11:27:57;;;;;;;5.07;2.67;;;10.70;99.90;;;;;;5419355;26;20062;-52
2024/04/16 11:30:24;;;;;;;0.90;0.60;;;10.80;99.90;;;;;;5419171;26;20046;-57
2024/04/16 11:32:50;;;;;;;1.80;0.80;;;11.00;99.90;;;;;;5451266;26;20476;-53
2024/04/16 11:35:16;;;;;;;1.23;0.60;;;11.10;99.90;;;;;;5451254;26;20346;-56
2024/04/16 11:37:45;;;;;;;1.25;1.15;;;11.20;99.90;;;;;;5450994;26;19998;-54
2024/04/16 11:40:12;;;;;;;2.28;0.55;;;11.30;99.90;;;;;;5419321;26;20009;-55
2024/04/16 11:42:38;;;;;;;4.63;0.88;;;11.30;99.90;;;;;;5451198;26;20442;-54
2024/04/16 11:45:04;;;;;;;1.38;0.70;;;11.30;99.90;;;;;;5419354;26;20450;-52
2024/04/16 11:47:30;;;;;;;1.55;0.98;;;11.40;99.90;;;;;;5450114;26;20111;-55
2024/04/16 11:50:00;;;;;;;3.33;0.57;;;11.40;99.90;;;;;;5469232;21;19999;-51
2024/04/16 11:52:25;;;;;;;0.57;0.57;;;11.40;99.90;;;;;;5450391;26;20079;-49
2024/04/16 11:54:51;;;;;;;3.97;0.77;;;11.60;99.90;;;;;;5450982;26;20310;-50
2024/04/16 11:57:19;;;;;;;1.55;0.70;;;11.70;99.90;;;;;;5419029;26;19995;-50
2024/04/16 11:59:47;;;;;;;0.70;0.60;;;11.80;99.90;;;;;;5430720;26;20383;-52
2024/04/16 12:02:13;;;;;;;0.55;0.40;;;11.90;99.90;;;;;;5383765;26;19999;-50
2024/04/16 12:04:38;;;;;;;1.35;0.60;;;11.90;99.90;;;;;;5414994;26;20080;-51
2024/04/16 12:07:04;;;;;;;1.15;1.00;;;11.70;99.90;;;;;;5414967;26;20004;-56
2024/04/16 12:09:31;;;;;;;0.60;0.45;;;11.70;99.90;;;;;;5418501;26;20007;-50
2024/04/16 12:11:57;;;;;;;1.65;0.90;;;11.60;99.90;;;;;;5446887;26;19999;-54
2024/04/16 12:14:22;;;;;;;1.13;0.57;;;11.40;99.90;;;;;;5408489;26;20490;-54
2024/04/16 12:16:48;;;;;;;0.50;0.50;;;11.40;99.90;;;;;;5393499;26;19999;-53
2024/04/16 12:19:14;;;;;;;5.35;0.68;;;11.40;99.90;;;;;;5409328;26;20011;-51
2024/04/16 12:21:39;;;;;;;1.02;0.60;;;11.40;99.90;;;;;;5409475;26;20003;-51
2024/04/16 12:24:05;;;;;;;1.10;0.70;;;11.40;99.90;;;;;;5379161;26;20015;-50
2024/04/16 12:26:31;;;;;;;0.43;0.43;;;11.40;99.90;;;;;;5411525;26;20534;-50
2024/04/16 12:28:58;;;;;;;2.25;0.60;;;11.40;99.90;;;;;;5382872;26;20343;-48
2024/04/16 12:31:24;;;;;;;2.78;0.75;;;11.40;99.90;;;;;;5414254;26;20007;-50
2024/04/16 12:33:50;;;;;;;2.75;0.55;;;11.40;99.90;;;;;;5413911;26;20404;-51
2024/04/16 12:36:16;;;;;;;1.45;0.63;;;11.50;99.90;;;;;;5413820;26;20014;-49
2024/04/16 12:38:43;;;;;;;0.47;0.47;;;11.50;99.90;;;;;;5382030;26;20007;-50
2024/04/16 12:41:08;;;;;;;1.40;0.70;;;11.60;99.90;;;;;;5414876;26;20000;-50
2024/04/16 12:43:33;;;;;;;2.95;0.73;;;11.70;99.90;;;;;;5415007;26;20000;-52
2024/04/16 12:46:00;;;;;;;2.30;0.50;;;11.90;99.90;;;;;;5414009;26;20362;-48
2024/04/16 12:48:26;;;;;;;10.65;1.05;;;12.00;99.90;;;;;;5413893;26;20147;-52
2024/04/16 12:50:52;;;;;;;3.22;0.63;;;12.10;99.90;;;;;;5413153;26;20468;-49
2024/04/16 12:53:18;;;;;;;1.23;0.90;;;12.20;99.90;;;;;;5418773;26;20017;-53